createdAt,value
2022-12-01T00:01:06.060Z,100.00
2022-12-01T00:03:33.287Z,100.00
2022-12-01T00:06:04.666Z,100.00
2022-12-01T00:08:31.926Z,100.00
2022-12-01T00:11:12.186Z,100.00
2022-12-01T00:13:38.695Z,100.00
2022-12-01T00:16:13.574Z,100.00
2022-12-01T00:18:40.191Z,100.00
2022-12-01T00:21:07.011Z,100.00
2022-12-01T00:23:33.404Z,100.00
2022-12-01T00:26:06.129Z,100.00
2022-12-01T00:28:32.517Z,100.00
2022-12-01T00:31:00.102Z,100.00
2022-12-01T00:33:26.517Z,100.00
2022-12-01T00:36:00.548Z,100.00
2022-12-01T00:38:27.631Z,100.00
2022-12-01T00:40:54.050Z,100.00
2022-12-01T00:43:20.448Z,100.00
2022-12-01T00:45:46.947Z,100.00
2022-12-01T00:48:13.361Z,100.00
2022-12-01T00:50:39.771Z,100.00
2022-12-01T00:53:06.171Z,100.00
2022-12-01T00:55:32.579Z,100.00
2022-12-01T00:57:58.987Z,100.00
2022-12-01T01:00:25.462Z,100.00
2022-12-01T01:02:51.918Z,100.00
2022-12-01T01:05:18.656Z,100.00
2022-12-01T01:07:45.129Z,100.00
2022-12-01T01:10:11.948Z,100.00
2022-12-01T01:12:38.336Z,100.00
2022-12-01T01:15:06.886Z,100.00
2022-12-01T01:17:34.052Z,100.00
2022-12-01T01:20:00.455Z,100.00
2022-12-01T01:22:26.882Z,100.00
2022-12-01T01:24:54.354Z,100.00
2022-12-01T01:27:20.740Z,100.00
2022-12-01T01:29:47.410Z,100.00
2022-12-01T01:32:14.029Z,100.00
2022-12-01T01:34:40.400Z,100.00
2022-12-01T01:37:06.792Z,100.00
2022-12-01T01:39:33.258Z,100.00
2022-12-01T01:41:59.649Z,100.00
2022-12-01T01:44:49.981Z,100.00
2022-12-01T01:47:21.883Z,100.00
2022-12-01T01:49:48.982Z,100.00
2022-12-01T01:52:16.407Z,100.00
2022-12-01T01:54:46.707Z,100.00
2022-12-01T01:57:16.756Z,100.00
2022-12-01T01:59:52.515Z,100.00
2022-12-01T02:02:18.921Z,100.00
2022-12-01T02:04:48.520Z,100.00
2022-12-01T02:07:17.821Z,100.00
2022-12-01T02:09:44.602Z,100.00
2022-12-01T02:12:13.965Z,100.00
2022-12-01T02:14:57.103Z,100.00
2022-12-01T02:17:42.259Z,100.00
2022-12-01T02:20:11.585Z,100.00
2022-12-01T02:23:01.736Z,100.00
2022-12-01T02:26:19.465Z,100.00
2022-12-01T02:29:03.416Z,100.00
2022-12-01T02:31:36.698Z,100.00
2022-12-01T02:34:13.252Z,100.00
2022-12-01T02:36:48.716Z,100.00
2022-12-01T02:39:25.054Z,100.00
2022-12-01T02:41:57.911Z,100.00
2022-12-01T02:44:35.196Z,100.00
2022-12-01T02:47:10.660Z,100.00
2022-12-01T02:49:43.135Z,100.00
2022-12-01T02:52:11.353Z,100.00
2022-12-01T02:54:38.424Z,100.00
2022-12-01T02:57:05.233Z,100.00
2022-12-01T02:59:31.657Z,100.00
2022-12-01T03:02:04.475Z,100.00
2022-12-01T03:04:38.899Z,100.00
2022-12-01T03:07:15.514Z,100.00
2022-12-01T03:10:08.821Z,100.00
2022-12-01T03:12:54.688Z,100.00
2022-12-01T03:15:32.880Z,100.00
2022-12-01T03:18:20.618Z,100.00
2022-12-01T03:20:56.855Z,100.00
2022-12-01T03:23:28.888Z,100.00
2022-12-01T03:25:58.923Z,100.00
2022-12-01T03:28:32.340Z,100.00
2022-12-01T03:31:05.424Z,100.00
2022-12-01T03:33:38.959Z,100.00
2022-12-01T03:36:08.159Z,100.00
2022-12-01T03:38:37.246Z,100.00
2022-12-01T03:41:09.443Z,100.00
2022-12-01T03:43:40.944Z,100.00
2022-12-01T03:46:15.205Z,100.00
2022-12-01T03:48:42.152Z,100.00
2022-12-01T03:51:15.236Z,100.00
2022-12-01T03:54:00.100Z,100.00
2022-12-01T03:56:31.892Z,100.00
2022-12-01T03:59:01.076Z,100.00
2022-12-01T04:01:32.770Z,100.00
2022-12-01T04:04:11.734Z,100.00
2022-12-01T04:06:40.754Z,100.00
2022-12-01T04:09:07.149Z,100.00
2022-12-01T04:11:52.216Z,100.00
2022-12-01T04:14:18.705Z,100.00
2022-12-01T04:16:45.109Z,100.00
2022-12-01T04:19:11.793Z,100.00
2022-12-01T04:21:38.349Z,100.00
2022-12-01T04:24:04.996Z,100.00
2022-12-01T04:26:34.215Z,100.00
2022-12-01T04:29:01.773Z,100.00
2022-12-01T04:31:28.450Z,100.00
2022-12-01T04:33:55.929Z,100.00
2022-12-01T04:36:23.360Z,100.00
2022-12-01T04:38:49.937Z,100.00
2022-12-01T04:41:16.589Z,100.00
2022-12-01T04:43:42.983Z,100.00
2022-12-01T04:46:09.760Z,100.00
2022-12-01T04:48:37.831Z,100.00
2022-12-01T04:51:06.056Z,100.00
2022-12-01T04:53:33.055Z,100.00
2022-12-01T04:56:01.026Z,100.00
2022-12-01T04:58:32.003Z,100.00
2022-12-01T05:01:03.615Z,100.00
2022-12-01T05:03:30.208Z,100.00
2022-12-01T05:06:09.397Z,100.00
2022-12-01T05:08:36.041Z,100.00
2022-12-01T05:11:02.996Z,100.00
2022-12-01T05:13:29.422Z,100.00
2022-12-01T05:16:08.074Z,100.00
2022-12-01T05:18:35.164Z,100.00
2022-12-01T05:21:03.947Z,100.00
2022-12-01T05:23:32.540Z,100.00
2022-12-01T05:25:59.685Z,100.00
2022-12-01T05:28:26.853Z,100.00
2022-12-01T05:30:54.379Z,100.00
2022-12-01T05:33:22.328Z,100.00
2022-12-01T05:35:49.348Z,100.00
2022-12-01T05:38:15.776Z,100.00
2022-12-01T05:40:42.367Z,100.00
2022-12-01T05:43:09.107Z,100.00
2022-12-01T05:45:35.841Z,100.00
2022-12-01T05:48:02.825Z,100.00
2022-12-01T05:50:30.340Z,100.00
2022-12-01T05:52:57.238Z,100.00
2022-12-01T05:55:23.698Z,100.00
2022-12-01T05:57:50.173Z,100.00
2022-12-01T06:00:17.175Z,100.00
2022-12-01T06:02:43.675Z,100.00
2022-12-01T06:05:10.503Z,100.00
2022-12-01T06:07:36.979Z,100.00
2022-12-01T06:10:04.233Z,100.00
2022-12-01T06:12:30.635Z,100.00
2022-12-01T06:14:57.038Z,100.00
2022-12-01T06:17:23.528Z,100.00
2022-12-01T06:19:50.119Z,100.00
2022-12-01T06:22:16.798Z,100.00
2022-12-01T06:24:43.195Z,100.00
2022-12-01T06:27:09.759Z,100.00
2022-12-01T06:29:41.827Z,100.00
2022-12-01T06:32:08.881Z,100.00
2022-12-01T06:34:35.355Z,100.00
2022-12-01T06:37:01.752Z,100.00
2022-12-01T06:39:28.094Z,100.00
2022-12-01T06:41:54.477Z,100.00
2022-12-01T06:44:20.856Z,100.00
2022-12-01T06:46:47.230Z,100.00
2022-12-01T06:49:13.619Z,100.00
2022-12-01T06:51:40.255Z,100.00
2022-12-01T06:54:06.721Z,100.00
2022-12-01T06:56:33.163Z,100.00
2022-12-01T06:59:00.044Z,100.00
2022-12-01T07:01:26.942Z,100.00
2022-12-01T07:03:53.531Z,100.00
2022-12-01T07:06:19.853Z,100.00
2022-12-01T07:08:46.435Z,100.00
2022-12-01T07:11:15.148Z,100.00
2022-12-01T07:13:42.802Z,100.00
2022-12-01T07:16:09.624Z,100.00
2022-12-01T07:18:40.540Z,100.00
2022-12-01T07:21:10.171Z,100.00
2022-12-01T07:23:36.728Z,100.00
2022-12-01T07:26:04.559Z,100.00
2022-12-01T07:28:31.351Z,100.00
2022-12-01T07:31:09.666Z,100.00
2022-12-01T07:33:36.802Z,100.00
2022-12-01T07:36:04.825Z,100.00
2022-12-01T07:38:32.662Z,100.00
2022-12-01T07:41:03.905Z,100.00
2022-12-01T07:43:32.043Z,100.00
2022-12-01T07:46:25.702Z,100.00
2022-12-01T07:48:53.758Z,100.00
2022-12-01T07:51:21.140Z,100.00
2022-12-01T07:53:49.295Z,100.00
2022-12-01T07:56:16.869Z,100.00
2022-12-01T07:58:43.262Z,100.00
2022-12-01T08:01:16.251Z,100.00
2022-12-01T08:03:43.518Z,100.00
2022-12-01T08:06:10.529Z,100.00
2022-12-01T08:08:38.595Z,100.00
2022-12-01T08:11:09.595Z,100.00
2022-12-01T08:13:36.061Z,100.00
2022-12-01T08:16:07.917Z,100.00
2022-12-01T08:18:39.584Z,100.00
2022-12-01T08:21:07.730Z,100.00
2022-12-01T08:23:34.340Z,100.00
2022-12-01T08:26:02.341Z,100.00
2022-12-01T08:28:29.070Z,100.00
2022-12-01T08:30:55.629Z,100.00
2022-12-01T08:33:22.689Z,100.00
2022-12-01T08:35:49.120Z,100.00
2022-12-01T08:38:16.007Z,100.00
2022-12-01T08:40:42.367Z,100.00
2022-12-01T08:43:12.348Z,100.00
2022-12-01T08:45:45.114Z,100.00
2022-12-01T08:48:11.509Z,100.00
2022-12-01T08:50:37.945Z,100.00
2022-12-01T08:53:04.336Z,100.00
2022-12-01T08:55:30.736Z,100.00
2022-12-01T08:57:58.216Z,100.00
2022-12-01T09:00:24.772Z,100.00
2022-12-01T09:02:51.217Z,100.00
2022-12-01T09:05:17.676Z,100.00
2022-12-01T09:07:45.551Z,100.00
2022-12-01T09:10:12.024Z,100.00
2022-12-01T09:12:38.451Z,100.00
2022-12-01T09:15:05.328Z,100.00
2022-12-01T09:17:31.732Z,100.00
2022-12-01T09:19:58.112Z,100.00
2022-12-01T09:22:24.517Z,100.00
2022-12-01T09:24:50.908Z,100.00
2022-12-01T09:27:17.271Z,100.00
2022-12-01T09:29:43.651Z,100.00
2022-12-01T09:32:10.171Z,100.00
2022-12-01T09:34:36.587Z,100.00
2022-12-01T09:37:03.262Z,100.00
2022-12-01T09:39:29.828Z,100.00
2022-12-01T09:42:07.667Z,100.00
2022-12-01T09:44:40.559Z,100.00
2022-12-01T09:47:19.460Z,100.00
2022-12-01T09:50:03.050Z,100.00
2022-12-01T09:52:37.311Z,100.00
2022-12-01T09:55:06.938Z,100.00
2022-12-01T09:57:36.539Z,100.00
2022-12-01T10:00:11.534Z,100.00
2022-12-01T10:02:47.717Z,100.00
2022-12-01T10:05:21.727Z,100.00
2022-12-01T10:08:11.900Z,100.00
2022-12-01T10:10:42.752Z,100.00
2022-12-01T10:13:24.303Z,100.00
2022-12-01T10:15:53.655Z,100.00
2022-12-01T10:18:49.218Z,100.00
2022-12-01T10:21:15.747Z,100.00
2022-12-01T10:24:10.796Z,100.00
2022-12-01T10:27:03.478Z,100.00
2022-12-01T10:29:48.080Z,100.00
2022-12-01T10:32:30.576Z,100.00
2022-12-01T10:34:57.647Z,100.00
2022-12-01T10:37:27.442Z,100.00
2022-12-01T10:39:55.996Z,100.00
2022-12-01T10:42:32.531Z,100.00
2022-12-01T10:45:06.437Z,100.00
2022-12-01T10:47:33.267Z,100.00
2022-12-01T10:49:59.803Z,100.00
2022-12-01T10:52:35.091Z,100.00
2022-12-01T10:55:03.536Z,100.00
2022-12-01T10:57:31.779Z,100.00
2022-12-01T11:00:05.980Z,100.00
2022-12-01T11:02:33.199Z,100.00
2022-12-01T11:05:06.523Z,100.00
2022-12-01T11:07:41.444Z,100.00
2022-12-01T11:10:30.232Z,100.00
2022-12-01T11:13:16.515Z,100.00
2022-12-01T11:15:53.598Z,100.00
2022-12-01T11:18:33.592Z,100.00
2022-12-01T11:21:13.508Z,100.00
2022-12-01T11:23:48.291Z,100.00
2022-12-01T11:26:20.607Z,100.00
2022-12-01T11:28:53.462Z,100.00
2022-12-01T11:31:22.815Z,100.00
2022-12-01T11:33:55.171Z,100.00
2022-12-01T11:36:44.227Z,100.00
2022-12-01T11:39:21.281Z,100.00
2022-12-01T11:41:47.726Z,100.00
2022-12-01T11:44:43.565Z,100.00
2022-12-01T11:47:25.304Z,100.00
2022-12-01T11:49:57.594Z,100.00
2022-12-01T11:52:36.392Z,100.00
2022-12-01T11:55:21.964Z,100.00
2022-12-01T11:57:51.837Z,100.00
2022-12-01T12:00:22.480Z,100.00
2022-12-01T12:02:58.156Z,100.00
2022-12-01T12:05:34.062Z,100.00
2022-12-01T12:08:29.975Z,97.40
2022-12-01T12:11:16.241Z,96.97
2022-12-01T12:14:04.310Z,97.60
2022-12-01T12:16:45.611Z,98.59
2022-12-01T12:19:28.941Z,96.17
2022-12-01T12:22:29.540Z,93.13
2022-12-01T12:25:25.387Z,91.25
2022-12-01T12:28:22.899Z,83.22
2022-12-01T12:31:14.193Z,84.68
2022-12-01T12:33:52.779Z,79.90
2022-12-01T12:36:30.078Z,78.03
2022-12-01T12:39:13.616Z,76.49
2022-12-01T12:41:46.279Z,83.30
2022-12-01T12:44:32.364Z,92.03
2022-12-01T12:47:16.854Z,97.25
2022-12-01T12:50:06.297Z,100.00
2022-12-01T12:52:44.591Z,85.23
2022-12-01T12:55:24.715Z,74.03
2022-12-01T12:57:59.136Z,67.97
2022-12-01T13:00:26.610Z,67.18
2022-12-01T13:03:13.986Z,77.25
2022-12-01T13:05:51.281Z,88.16
2022-12-01T13:08:30.088Z,92.90
2022-12-01T13:11:06.732Z,95.56
2022-12-01T13:13:42.660Z,98.56
2022-12-01T13:16:19.270Z,100.00
2022-12-01T13:18:52.672Z,100.00
2022-12-01T13:21:21.682Z,100.00
2022-12-01T13:23:50.713Z,100.00
2022-12-01T13:26:20.503Z,100.00
2022-12-01T13:28:51.488Z,100.00
2022-12-01T13:31:19.813Z,100.00
2022-12-01T13:33:55.832Z,100.00
2022-12-01T13:36:45.769Z,100.00
2022-12-01T13:39:35.574Z,100.00
2022-12-01T13:42:25.825Z,100.00
2022-12-01T13:44:56.243Z,100.00
2022-12-01T13:47:22.639Z,100.00
2022-12-01T13:49:50.819Z,100.00
2022-12-01T13:52:23.264Z,100.00
2022-12-01T13:55:07.923Z,100.00
2022-12-01T13:57:39.926Z,100.00
2022-12-01T14:00:21.366Z,100.00
2022-12-01T14:03:20.048Z,100.00
2022-12-01T14:05:53.131Z,100.00
2022-12-01T14:08:34.362Z,100.00
2022-12-01T14:11:05.628Z,100.00
2022-12-01T14:13:44.412Z,100.00
2022-12-01T14:16:11.055Z,100.00
2022-12-01T14:18:43.103Z,100.00
2022-12-01T14:21:12.339Z,100.00
2022-12-01T14:23:58.364Z,100.00
2022-12-01T14:26:25.251Z,100.00
2022-12-01T14:29:03.536Z,100.00
2022-12-01T14:31:33.139Z,100.00
2022-12-01T14:34:03.907Z,100.00
2022-12-01T14:36:57.522Z,100.00
2022-12-01T14:39:38.130Z,100.00
2022-12-01T14:42:10.460Z,100.00
2022-12-01T14:44:53.995Z,100.00
2022-12-01T14:47:46.818Z,100.00
2022-12-01T14:50:19.505Z,100.00
2022-12-01T14:53:06.468Z,100.00
2022-12-01T14:55:42.033Z,100.00
2022-12-01T14:58:17.116Z,100.00
2022-12-01T15:01:10.856Z,100.00
2022-12-01T15:03:47.013Z,100.00
2022-12-01T15:06:22.286Z,100.00
2022-12-01T15:09:32.223Z,100.00
2022-12-01T15:11:53.016Z,100.00
2022-12-01T15:14:34.891Z,100.00
2022-12-01T15:17:04.987Z,100.00
2022-12-01T15:19:37.533Z,100.00
2022-12-01T15:22:13.774Z,100.00
2022-12-01T15:24:40.939Z,100.00
2022-12-01T15:27:25.175Z,100.00
2022-12-01T15:29:52.361Z,100.00
2022-12-01T15:32:21.207Z,100.00
2022-12-01T15:34:50.905Z,100.00
2022-12-01T15:37:22.746Z,100.00
2022-12-01T15:39:52.624Z,100.00
2022-12-01T15:42:29.462Z,100.00
2022-12-01T15:45:00.564Z,100.00
2022-12-01T15:47:46.412Z,100.00
2022-12-01T15:50:37.695Z,100.00
2022-12-01T15:53:25.047Z,100.00
2022-12-01T15:55:58.535Z,100.00
2022-12-01T15:58:34.776Z,100.00
2022-12-01T16:01:20.960Z,100.00
2022-12-01T16:03:54.160Z,100.00
2022-12-01T16:06:24.807Z,100.00
2022-12-01T16:09:03.882Z,100.00
2022-12-01T16:11:30.579Z,100.00
2022-12-01T16:14:06.086Z,100.00
2022-12-01T16:16:49.351Z,100.00
2022-12-01T16:19:18.920Z,100.00
2022-12-01T16:21:57.513Z,100.00
2022-12-01T16:24:29.319Z,100.00
2022-12-01T16:27:01.078Z,100.00
2022-12-01T16:29:30.015Z,100.00
2022-12-01T16:32:23.422Z,100.00
2022-12-01T16:34:52.421Z,100.00
2022-12-01T16:37:19.504Z,100.00
2022-12-01T16:39:45.912Z,100.00
2022-12-01T16:42:17.681Z,100.00
2022-12-01T16:44:46.310Z,100.00
2022-12-01T16:47:14.264Z,100.00
2022-12-01T16:49:40.835Z,100.00
2022-12-01T16:52:36.466Z,100.00
2022-12-01T16:54:53.611Z,100.00
2022-12-01T16:57:19.964Z,100.00
2022-12-01T16:59:46.322Z,100.00
2022-12-01T17:02:12.726Z,100.00
2022-12-01T17:04:39.161Z,100.00
2022-12-01T17:07:05.608Z,100.00
2022-12-01T17:09:32.208Z,100.00
2022-12-01T17:11:59.265Z,100.00
2022-12-01T17:14:25.747Z,100.00
2022-12-01T17:16:52.096Z,100.00
2022-12-01T17:19:20.873Z,100.00
2022-12-01T17:21:47.274Z,100.00
2022-12-01T17:24:18.668Z,100.00
2022-12-01T17:26:45.534Z,100.00
2022-12-01T17:29:11.906Z,100.00
2022-12-01T17:31:38.441Z,100.00
2022-12-01T17:34:04.887Z,100.00
2022-12-01T17:36:31.304Z,100.00
2022-12-01T17:38:58.665Z,100.00
2022-12-01T17:41:32.050Z,100.00
2022-12-01T17:43:58.615Z,100.00
2022-12-01T17:46:25.433Z,100.00
2022-12-01T17:48:51.910Z,100.00
2022-12-01T17:51:18.540Z,100.00
2022-12-01T17:53:45.044Z,100.00
2022-12-01T17:56:13.615Z,100.00
2022-12-01T17:58:40.741Z,100.00
2022-12-01T18:01:14.011Z,100.00
2022-12-01T18:03:40.646Z,100.00
2022-12-01T18:06:07.455Z,100.00
2022-12-01T18:08:35.534Z,100.00
2022-12-01T18:11:07.616Z,100.00
2022-12-01T18:13:43.691Z,100.00
2022-12-01T18:16:13.477Z,100.00
2022-12-01T18:18:40.463Z,100.00
2022-12-01T18:21:09.506Z,100.00
2022-12-01T18:23:36.409Z,100.00
2022-12-01T18:26:15.748Z,100.00
2022-12-01T18:28:42.963Z,100.00
2022-12-01T18:31:11.913Z,100.00
2022-12-01T18:33:40.361Z,100.00
2022-12-01T18:36:12.931Z,100.00
2022-12-01T18:38:40.362Z,100.00
2022-12-01T18:41:07.058Z,100.00
2022-12-01T18:43:33.839Z,100.00
2022-12-01T18:46:02.357Z,100.00
2022-12-01T18:48:28.743Z,100.00
2022-12-01T18:50:59.458Z,100.00
2022-12-01T18:53:26.932Z,100.00
2022-12-01T18:55:53.308Z,100.00
2022-12-01T18:58:19.656Z,100.00
2022-12-01T19:00:46.163Z,100.00
2022-12-01T19:03:12.598Z,100.00
2022-12-01T19:05:39.935Z,100.00
2022-12-01T19:08:06.555Z,100.00
2022-12-01T19:10:33.227Z,100.00
2022-12-01T19:12:59.637Z,100.00
2022-12-01T19:15:26.016Z,100.00
2022-12-01T19:17:52.393Z,100.00
2022-12-01T19:20:18.876Z,100.00
2022-12-01T19:22:45.260Z,100.00
2022-12-01T19:25:13.341Z,100.00
2022-12-01T19:27:40.569Z,100.00
2022-12-01T19:30:07.794Z,100.00
2022-12-01T19:32:34.423Z,100.00
2022-12-01T19:35:00.823Z,100.00
2022-12-01T19:37:27.265Z,100.00
2022-12-01T19:39:53.616Z,100.00
2022-12-01T19:42:20.028Z,100.00
2022-12-01T19:44:46.379Z,100.00
2022-12-01T19:47:13.972Z,100.00
2022-12-01T19:49:42.915Z,100.00
2022-12-01T19:52:09.304Z,100.00
2022-12-01T19:54:37.634Z,100.00
2022-12-01T19:57:04.078Z,100.00
2022-12-01T19:59:30.523Z,100.00
2022-12-01T20:01:56.953Z,100.00
2022-12-01T20:04:23.949Z,100.00
2022-12-01T20:06:50.424Z,100.00
2022-12-01T20:09:16.872Z,100.00
2022-12-01T20:11:43.215Z,100.00
2022-12-01T20:14:09.888Z,100.00
2022-12-01T20:16:36.563Z,100.00
2022-12-01T20:19:04.318Z,100.00
2022-12-01T20:21:34.914Z,100.00
2022-12-01T20:24:04.134Z,100.00
2022-12-01T20:26:40.020Z,100.00
2022-12-01T20:29:12.699Z,100.00
2022-12-01T20:31:39.743Z,100.00
2022-12-01T20:34:11.450Z,100.00
2022-12-01T20:36:38.717Z,100.00
2022-12-01T20:39:07.115Z,100.00
2022-12-01T20:41:34.551Z,100.00
2022-12-01T20:44:06.693Z,100.00
2022-12-01T20:46:34.391Z,100.00
2022-12-01T20:49:00.758Z,100.00
2022-12-01T20:51:27.258Z,100.00
2022-12-01T20:54:19.807Z,100.00
2022-12-01T20:56:40.124Z,100.00
2022-12-01T20:59:07.820Z,100.00
2022-12-01T21:01:34.497Z,100.00
2022-12-01T21:04:01.113Z,100.00
2022-12-01T21:06:29.111Z,100.00
2022-12-01T21:08:55.768Z,100.00
2022-12-01T21:12:08.386Z,100.00
2022-12-01T21:15:01.251Z,100.00
2022-12-01T21:17:30.690Z,100.00
2022-12-01T21:20:09.350Z,100.00
2022-12-01T21:22:36.490Z,100.00
2022-12-01T21:25:12.027Z,100.00
2022-12-01T21:27:38.503Z,100.00
2022-12-01T21:30:20.081Z,100.00
2022-12-01T21:32:47.916Z,100.00
2022-12-01T21:35:18.258Z,100.00
2022-12-01T21:37:45.494Z,100.00
2022-12-01T21:40:15.016Z,100.00
2022-12-01T21:42:41.515Z,100.00
2022-12-01T21:45:17.087Z,100.00
2022-12-01T21:47:43.567Z,100.00
2022-12-01T21:50:20.965Z,100.00
2022-12-01T21:52:48.056Z,100.00
2022-12-01T21:55:14.396Z,100.00
2022-12-01T21:57:50.135Z,100.00
2022-12-01T22:00:36.857Z,100.00
2022-12-01T22:03:09.291Z,100.00
2022-12-01T22:05:38.567Z,100.00
2022-12-01T22:08:13.714Z,100.00
2022-12-01T22:10:59.790Z,100.00
2022-12-01T22:13:49.606Z,100.00
2022-12-01T22:16:30.202Z,100.00
2022-12-01T22:19:02.243Z,100.00
2022-12-01T22:21:34.499Z,100.00
2022-12-01T22:24:06.447Z,100.00
2022-12-01T22:26:34.442Z,100.00
2022-12-01T22:29:00.995Z,100.00
2022-12-01T22:31:28.523Z,100.00
2022-12-01T22:34:03.397Z,100.00
2022-12-01T22:36:31.700Z,100.00
2022-12-01T22:38:58.091Z,100.00
2022-12-01T22:41:24.560Z,100.00
2022-12-01T22:44:00.599Z,100.00
2022-12-01T22:46:29.170Z,100.00
2022-12-01T22:49:10.621Z,100.00
2022-12-01T22:51:46.203Z,100.00
2022-12-01T22:54:12.564Z,100.00
2022-12-01T22:56:43.798Z,100.00
2022-12-01T22:59:14.659Z,100.00
2022-12-01T23:01:54.287Z,100.00
2022-12-01T23:04:31.096Z,100.00
2022-12-01T23:07:02.547Z,100.00
2022-12-01T23:09:43.291Z,100.00
2022-12-01T23:12:09.661Z,100.00
2022-12-01T23:14:40.001Z,100.00
2022-12-01T23:17:12.850Z,100.00
2022-12-01T23:19:39.272Z,100.00
2022-12-01T23:22:05.677Z,100.00
2022-12-01T23:24:34.076Z,100.00
2022-12-01T23:27:00.847Z,100.00
2022-12-01T23:29:27.261Z,100.00
2022-12-01T23:31:53.796Z,100.00
2022-12-01T23:34:20.445Z,100.00
2022-12-01T23:36:49.926Z,100.00
2022-12-01T23:39:18.402Z,100.00
2022-12-01T23:41:47.283Z,100.00
2022-12-01T23:44:22.735Z,100.00
2022-12-01T23:46:53.126Z,100.00
2022-12-01T23:49:22.472Z,100.00
2022-12-01T23:51:54.044Z,100.00
2022-12-01T23:54:26.472Z,100.00
2022-12-01T23:56:55.688Z,100.00
2022-12-01T23:59:22.579Z,100.00
